sensor_id;sensor_type;location;lat;lon;timestamp;P1;durP1;ratioP1;P2;durP2;ratioP2
75488;SDS011;64069;46.396;48.102;2023-02-28T00:00:10;25.00;;;7.97;;
75488;SDS011;64069;46.396;48.102;2023-02-28T00:02:38;28.35;;;8.40;;
75488;SDS011;64069;46.396;48.102;2023-02-28T00:05:05;34.45;;;9.85;;
75488;SDS011;64069;46.396;48.102;2023-02-28T00:07:32;40.88;;;10.30;;
75488;SDS011;64069;46.396;48.102;2023-02-28T00:09:59;37.85;;;9.80;;
75488;SDS011;64069;46.396;48.102;2023-02-28T00:12:25;42.75;;;9.82;;
75488;SDS011;64069;46.396;48.102;2023-02-28T00:14:51;38.30;;;10.38;;
75488;SDS011;64069;46.396;48.102;2023-02-28T00:17:17;34.55;;;9.20;;
75488;SDS011;64069;46.396;48.102;2023-02-28T00:19:47;27.98;;;8.73;;
75488;SDS011;64069;46.396;48.102;2023-02-28T00:22:14;26.27;;;8.60;;
75488;SDS011;64069;46.396;48.102;2023-02-28T00:24:44;31.15;;;10.15;;
75488;SDS011;64069;46.396;48.102;2023-02-28T00:27:10;33.63;;;9.07;;
75488;SDS011;64069;46.396;48.102;2023-02-28T00:29:37;26.60;;;8.48;;
75488;SDS011;64069;46.396;48.102;2023-02-28T00:32:03;26.05;;;8.52;;
75488;SDS011;64069;46.396;48.102;2023-02-28T00:34:30;31.42;;;8.88;;
75488;SDS011;64069;46.396;48.102;2023-02-28T00:36:56;39.20;;;9.52;;
75488;SDS011;64069;46.396;48.102;2023-02-28T00:39:22;37.20;;;9.15;;
75488;SDS011;64069;46.396;48.102;2023-02-28T00:41:47;22.75;;;7.10;;
75488;SDS011;64069;46.396;48.102;2023-02-28T00:44:13;31.20;;;8.55;;
75488;SDS011;64069;46.396;48.102;2023-02-28T00:46:39;33.72;;;10.50;;
75488;SDS011;64069;46.396;48.102;2023-02-28T00:49:05;23.33;;;8.15;;
75488;SDS011;64069;46.396;48.102;2023-02-28T00:51:31;31.30;;;9.38;;
75488;SDS011;64069;46.396;48.102;2023-02-28T00:53:57;29.08;;;8.90;;
75488;SDS011;64069;46.396;48.102;2023-02-28T00:56:23;35.50;;;8.95;;
75488;SDS011;64069;46.396;48.102;2023-02-28T00:58:49;32.05;;;9.55;;
75488;SDS011;64069;46.396;48.102;2023-02-28T01:01:15;33.65;;;8.38;;
75488;SDS011;64069;46.396;48.102;2023-02-28T01:03:40;30.10;;;8.57;;
75488;SDS011;64069;46.396;48.102;2023-02-28T01:06:07;33.35;;;10.68;;
75488;SDS011;64069;46.396;48.102;2023-02-28T01:08:33;29.52;;;9.00;;
75488;SDS011;64069;46.396;48.102;2023-02-28T01:11:06;20.70;;;7.15;;
75488;SDS011;64069;46.396;48.102;2023-02-28T01:13:36;36.83;;;8.38;;
75488;SDS011;64069;46.396;48.102;2023-02-28T01:16:02;31.33;;;7.85;;
75488;SDS011;64069;46.396;48.102;2023-02-28T01:18:28;31.83;;;8.65;;
75488;SDS011;64069;46.396;48.102;2023-02-28T01:20:53;32.72;;;8.52;;
75488;SDS011;64069;46.396;48.102;2023-02-28T01:23:20;35.65;;;8.52;;
75488;SDS011;64069;46.396;48.102;2023-02-28T01:25:49;27.73;;;8.02;;
75488;SDS011;64069;46.396;48.102;2023-02-28T01:28:15;29.85;;;9.30;;
75488;SDS011;64069;46.396;48.102;2023-02-28T01:30:41;30.55;;;7.80;;
75488;SDS011;64069;46.396;48.102;2023-02-28T01:33:07;27.05;;;8.48;;
75488;SDS011;64069;46.396;48.102;2023-02-28T01:35:34;25.77;;;7.43;;
75488;SDS011;64069;46.396;48.102;2023-02-28T01:38:01;29.77;;;8.38;;
75488;SDS011;64069;46.396;48.102;2023-02-28T01:40:28;32.25;;;9.88;;
75488;SDS011;64069;46.396;48.102;2023-02-28T01:42:54;35.40;;;10.55;;
75488;SDS011;64069;46.396;48.102;2023-02-28T01:47:52;29.83;;;8.13;;
75488;SDS011;64069;46.396;48.102;2023-02-28T01:50:25;29.50;;;8.00;;
75488;SDS011;64069;46.396;48.102;2023-02-28T01:52:54;30.80;;;7.93;;
75488;SDS011;64069;46.396;48.102;2023-02-28T01:55:23;32.45;;;9.13;;
75488;SDS011;64069;46.396;48.102;2023-02-28T01:57:57;33.03;;;8.90;;
75488;SDS011;64069;46.396;48.102;2023-02-28T02:00:26;31.58;;;9.13;;
75488;SDS011;64069;46.396;48.102;2023-02-28T02:02:54;38.38;;;9.93;;
75488;SDS011;64069;46.396;48.102;2023-02-28T02:05:25;30.38;;;9.30;;
75488;SDS011;64069;46.396;48.102;2023-02-28T02:08:04;31.52;;;10.55;;
75488;SDS011;64069;46.396;48.102;2023-02-28T02:10:36;29.00;;;9.88;;
75488;SDS011;64069;46.396;48.102;2023-02-28T02:18:37;51.67;;;10.43;;
75488;SDS011;64069;46.396;48.102;2023-02-28T02:27:06;31.48;;;9.52;;
75488;SDS011;64069;46.396;48.102;2023-02-28T02:34:58;42.85;;;10.80;;
75488;SDS011;64069;46.396;48.102;2023-02-28T02:37:39;31.17;;;10.38;;
75488;SDS011;64069;46.396;48.102;2023-02-28T02:42:48;35.95;;;8.65;;
75488;SDS011;64069;46.396;48.102;2023-02-28T02:48:17;28.27;;;8.15;;
75488;SDS011;64069;46.396;48.102;2023-02-28T02:53:17;34.40;;;8.63;;
75488;SDS011;64069;46.396;48.102;2023-02-28T02:55:47;30.85;;;7.90;;
75488;SDS011;64069;46.396;48.102;2023-02-28T02:58:24;28.00;;;8.93;;
75488;SDS011;64069;46.396;48.102;2023-02-28T03:00:56;38.83;;;10.77;;
75488;SDS011;64069;46.396;48.102;2023-02-28T03:03:25;28.90;;;8.90;;
75488;SDS011;64069;46.396;48.102;2023-02-28T03:05:59;30.10;;;9.52;;
75488;SDS011;64069;46.396;48.102;2023-02-28T03:08:27;29.80;;;8.47;;
75488;SDS011;64069;46.396;48.102;2023-02-28T03:10:56;28.27;;;8.43;;
75488;SDS011;64069;46.396;48.102;2023-02-28T03:24:52;33.53;;;11.02;;
75488;SDS011;64069;46.396;48.102;2023-02-28T03:32:55;24.23;;;7.88;;
75488;SDS011;64069;46.396;48.102;2023-02-28T03:35:29;37.80;;;11.10;;
75488;SDS011;64069;46.396;48.102;2023-02-28T03:38:18;86.32;;;33.80;;
75488;SDS011;64069;46.396;48.102;2023-02-28T03:41:27;44.60;;;12.77;;
75488;SDS011;64069;46.396;48.102;2023-02-28T03:43:58;41.75;;;14.85;;
75488;SDS011;64069;46.396;48.102;2023-02-28T03:46:30;55.35;;;20.02;;
75488;SDS011;64069;46.396;48.102;2023-02-28T03:51:39;35.40;;;8.98;;
75488;SDS011;64069;46.396;48.102;2023-02-28T03:54:11;29.35;;;8.65;;
75488;SDS011;64069;46.396;48.102;2023-02-28T03:57:02;34.47;;;9.40;;
75488;SDS011;64069;46.396;48.102;2023-02-28T04:02:03;21.15;;;8.20;;
75488;SDS011;64069;46.396;48.102;2023-02-28T04:04:29;23.58;;;6.60;;
75488;SDS011;64069;46.396;48.102;2023-02-28T04:07:03;25.02;;;7.88;;
75488;SDS011;64069;46.396;48.102;2023-02-28T04:09:34;27.75;;;8.07;;
75488;SDS011;64069;46.396;48.102;2023-02-28T04:12:00;23.23;;;7.50;;
75488;SDS011;64069;46.396;48.102;2023-02-28T04:14:26;24.70;;;8.15;;
75488;SDS011;64069;46.396;48.102;2023-02-28T04:16:52;21.80;;;7.38;;
75488;SDS011;64069;46.396;48.102;2023-02-28T04:19:18;21.80;;;7.65;;
75488;SDS011;64069;46.396;48.102;2023-02-28T04:21:52;23.38;;;7.00;;
75488;SDS011;64069;46.396;48.102;2023-02-28T04:24:22;26.70;;;7.75;;
75488;SDS011;64069;46.396;48.102;2023-02-28T04:26:51;25.50;;;8.07;;
75488;SDS011;64069;46.396;48.102;2023-02-28T04:29:30;27.30;;;8.23;;
75488;SDS011;64069;46.396;48.102;2023-02-28T04:32:00;22.15;;;7.78;;
75488;SDS011;64069;46.396;48.102;2023-02-28T04:34:27;20.00;;;6.75;;
75488;SDS011;64069;46.396;48.102;2023-02-28T04:36:55;22.30;;;7.68;;
75488;SDS011;64069;46.396;48.102;2023-02-28T04:39:22;19.52;;;6.03;;
75488;SDS011;64069;46.396;48.102;2023-02-28T04:41:49;21.23;;;7.03;;
75488;SDS011;64069;46.396;48.102;2023-02-28T04:44:16;15.27;;;5.40;;
75488;SDS011;64069;46.396;48.102;2023-02-28T04:46:42;24.05;;;8.50;;
75488;SDS011;64069;46.396;48.102;2023-02-28T04:49:09;28.70;;;9.88;;
75488;SDS011;64069;46.396;48.102;2023-02-28T04:51:37;24.15;;;7.85;;
75488;SDS011;64069;46.396;48.102;2023-02-28T04:54:03;25.50;;;8.95;;
75488;SDS011;64069;46.396;48.102;2023-02-28T04:56:30;27.02;;;8.98;;
75488;SDS011;64069;46.396;48.102;2023-02-28T04:58:55;24.52;;;8.23;;
75488;SDS011;64069;46.396;48.102;2023-02-28T05:01:25;25.08;;;8.60;;
75488;SDS011;64069;46.396;48.102;2023-02-28T05:03:53;21.95;;;8.80;;
75488;SDS011;64069;46.396;48.102;2023-02-28T05:06:21;23.20;;;7.05;;
75488;SDS011;64069;46.396;48.102;2023-02-28T05:08:49;23.85;;;9.18;;
75488;SDS011;64069;46.396;48.102;2023-02-28T05:11:22;23.02;;;8.25;;
75488;SDS011;64069;46.396;48.102;2023-02-28T05:13:50;27.88;;;8.95;;
75488;SDS011;64069;46.396;48.102;2023-02-28T05:16:17;23.80;;;8.52;;
75488;SDS011;64069;46.396;48.102;2023-02-28T05:18:43;31.13;;;9.07;;
75488;SDS011;64069;46.396;48.102;2023-02-28T05:21:27;23.52;;;8.70;;
75488;SDS011;64069;46.396;48.102;2023-02-28T05:23:59;34.08;;;9.40;;
75488;SDS011;64069;46.396;48.102;2023-02-28T05:28:56;41.90;;;10.55;;
75488;SDS011;64069;46.396;48.102;2023-02-28T05:31:22;38.40;;;10.43;;
75488;SDS011;64069;46.396;48.102;2023-02-28T05:33:48;41.40;;;10.32;;
75488;SDS011;64069;46.396;48.102;2023-02-28T05:36:14;25.10;;;7.38;;
75488;SDS011;64069;46.396;48.102;2023-02-28T05:38:40;20.85;;;6.85;;
75488;SDS011;64069;46.396;48.102;2023-02-28T05:41:07;20.50;;;6.53;;
75488;SDS011;64069;46.396;48.102;2023-02-28T05:43:34;22.30;;;7.13;;
75488;SDS011;64069;46.396;48.102;2023-02-28T05:46:02;22.00;;;6.90;;
75488;SDS011;64069;46.396;48.102;2023-02-28T05:48:33;19.45;;;7.30;;
75488;SDS011;64069;46.396;48.102;2023-02-28T05:51:01;21.92;;;6.18;;
75488;SDS011;64069;46.396;48.102;2023-02-28T05:53:28;20.38;;;6.68;;
75488;SDS011;64069;46.396;48.102;2023-02-28T05:55:54;15.20;;;5.82;;
75488;SDS011;64069;46.396;48.102;2023-02-28T05:58:21;21.30;;;5.88;;
75488;SDS011;64069;46.396;48.102;2023-02-28T06:00:47;19.50;;;7.30;;
75488;SDS011;64069;46.396;48.102;2023-02-28T06:03:14;20.33;;;7.47;;
75488;SDS011;64069;46.396;48.102;2023-02-28T06:05:40;22.50;;;8.55;;
75488;SDS011;64069;46.396;48.102;2023-02-28T06:08:10;19.77;;;7.85;;
75488;SDS011;64069;46.396;48.102;2023-02-28T06:10:36;18.63;;;6.18;;
75488;SDS011;64069;46.396;48.102;2023-02-28T06:13:02;22.73;;;7.68;;
75488;SDS011;64069;46.396;48.102;2023-02-28T06:15:29;21.35;;;8.02;;
75488;SDS011;64069;46.396;48.102;2023-02-28T06:17:55;22.55;;;8.98;;
75488;SDS011;64069;46.396;48.102;2023-02-28T06:20:22;22.65;;;8.15;;
75488;SDS011;64069;46.396;48.102;2023-02-28T06:22:48;23.85;;;7.63;;
75488;SDS011;64069;46.396;48.102;2023-02-28T06:25:16;21.83;;;8.48;;
75488;SDS011;64069;46.396;48.102;2023-02-28T06:27:43;16.77;;;7.05;;
75488;SDS011;64069;46.396;48.102;2023-02-28T06:30:09;20.80;;;7.35;;
75488;SDS011;64069;46.396;48.102;2023-02-28T06:32:36;20.45;;;7.30;;
75488;SDS011;64069;46.396;48.102;2023-02-28T06:35:02;15.23;;;6.38;;
75488;SDS011;64069;46.396;48.102;2023-02-28T06:37:30;16.98;;;6.95;;
75488;SDS011;64069;46.396;48.102;2023-02-28T06:39:56;17.83;;;7.00;;
75488;SDS011;64069;46.396;48.102;2023-02-28T06:42:23;14.18;;;5.88;;
75488;SDS011;64069;46.396;48.102;2023-02-28T06:44:57;22.98;;;8.40;;
75488;SDS011;64069;46.396;48.102;2023-02-28T06:47:23;23.63;;;8.35;;
75488;SDS011;64069;46.396;48.102;2023-02-28T06:49:49;18.90;;;7.35;;
75488;SDS011;64069;46.396;48.102;2023-02-28T06:52:15;17.67;;;7.32;;
75488;SDS011;64069;46.396;48.102;2023-02-28T06:54:41;16.17;;;6.78;;
75488;SDS011;64069;46.396;48.102;2023-02-28T06:57:07;16.00;;;7.40;;
75488;SDS011;64069;46.396;48.102;2023-02-28T06:59:33;17.20;;;6.00;;
75488;SDS011;64069;46.396;48.102;2023-02-28T07:02:00;29.60;;;16.02;;
75488;SDS011;64069;46.396;48.102;2023-02-28T07:04:27;18.98;;;7.38;;
75488;SDS011;64069;46.396;48.102;2023-02-28T07:06:54;17.10;;;6.15;;
75488;SDS011;64069;46.396;48.102;2023-02-28T07:09:22;17.98;;;6.43;;
75488;SDS011;64069;46.396;48.102;2023-02-28T07:11:48;15.60;;;5.85;;
75488;SDS011;64069;46.396;48.102;2023-02-28T07:14:14;15.93;;;6.65;;
75488;SDS011;64069;46.396;48.102;2023-02-28T07:16:40;16.83;;;6.38;;
75488;SDS011;64069;46.396;48.102;2023-02-28T07:19:06;16.20;;;6.47;;
75488;SDS011;64069;46.396;48.102;2023-02-28T07:21:32;19.70;;;6.82;;
75488;SDS011;64069;46.396;48.102;2023-02-28T07:23:58;18.45;;;6.65;;
75488;SDS011;64069;46.396;48.102;2023-02-28T07:26:24;14.82;;;5.45;;
75488;SDS011;64069;46.396;48.102;2023-02-28T07:28:50;15.35;;;6.53;;
75488;SDS011;64069;46.396;48.102;2023-02-28T07:31:16;19.25;;;6.40;;
75488;SDS011;64069;46.396;48.102;2023-02-28T07:33:42;22.25;;;7.65;;
75488;SDS011;64069;46.396;48.102;2023-02-28T07:36:09;17.95;;;6.68;;
75488;SDS011;64069;46.396;48.102;2023-02-28T07:41:09;19.25;;;7.22;;
75488;SDS011;64069;46.396;48.102;2023-02-28T07:43:35;17.35;;;7.70;;
75488;SDS011;64069;46.396;48.102;2023-02-28T07:46:06;20.85;;;7.95;;
75488;SDS011;64069;46.396;48.102;2023-02-28T07:48:34;17.63;;;6.93;;
75488;SDS011;64069;46.396;48.102;2023-02-28T07:51:00;15.60;;;6.70;;
75488;SDS011;64069;46.396;48.102;2023-02-28T07:53:27;14.55;;;6.82;;
75488;SDS011;64069;46.396;48.102;2023-02-28T07:56:00;12.80;;;6.13;;
75488;SDS011;64069;46.396;48.102;2023-02-28T07:58:28;13.00;;;5.97;;
75488;SDS011;64069;46.396;48.102;2023-02-28T08:00:55;14.02;;;6.25;;
75488;SDS011;64069;46.396;48.102;2023-02-28T08:03:22;12.38;;;5.80;;
75488;SDS011;64069;46.396;48.102;2023-02-28T08:05:48;15.00;;;6.05;;
75488;SDS011;64069;46.396;48.102;2023-02-28T08:08:15;19.23;;;5.95;;
75488;SDS011;64069;46.396;48.102;2023-02-28T08:10:42;19.08;;;7.72;;
75488;SDS011;64069;46.396;48.102;2023-02-28T08:13:08;14.25;;;6.60;;
75488;SDS011;64069;46.396;48.102;2023-02-28T08:15:34;12.15;;;5.90;;
75488;SDS011;64069;46.396;48.102;2023-02-28T08:18:00;16.63;;;6.15;;
75488;SDS011;64069;46.396;48.102;2023-02-28T08:20:26;12.23;;;5.60;;
75488;SDS011;64069;46.396;48.102;2023-02-28T08:22:52;18.88;;;5.88;;
75488;SDS011;64069;46.396;48.102;2023-02-28T08:25:23;11.00;;;5.55;;
75488;SDS011;64069;46.396;48.102;2023-02-28T08:27:50;16.00;;;5.43;;
75488;SDS011;64069;46.396;48.102;2023-02-28T08:30:17;12.82;;;5.07;;
75488;SDS011;64069;46.396;48.102;2023-02-28T08:32:43;12.85;;;4.45;;
75488;SDS011;64069;46.396;48.102;2023-02-28T08:35:10;10.57;;;4.28;;
75488;SDS011;64069;46.396;48.102;2023-02-28T08:37:36;10.25;;;4.43;;
75488;SDS011;64069;46.396;48.102;2023-02-28T08:40:02;8.73;;;4.13;;
75488;SDS011;64069;46.396;48.102;2023-02-28T08:42:29;8.85;;;4.40;;
75488;SDS011;64069;46.396;48.102;2023-02-28T08:44:55;9.00;;;4.50;;
75488;SDS011;64069;46.396;48.102;2023-02-28T08:47:21;9.15;;;4.18;;
75488;SDS011;64069;46.396;48.102;2023-02-28T08:49:47;9.85;;;4.10;;
75488;SDS011;64069;46.396;48.102;2023-02-28T08:52:13;8.70;;;3.95;;
75488;SDS011;64069;46.396;48.102;2023-02-28T08:54:39;14.38;;;4.65;;
75488;SDS011;64069;46.396;48.102;2023-02-28T08:57:05;12.48;;;4.68;;
75488;SDS011;64069;46.396;48.102;2023-02-28T08:59:31;12.98;;;3.58;;
75488;SDS011;64069;46.396;48.102;2023-02-28T09:01:58;14.43;;;5.72;;
75488;SDS011;64069;46.396;48.102;2023-02-28T09:04:23;13.05;;;4.72;;
75488;SDS011;64069;46.396;48.102;2023-02-28T09:06:50;8.18;;;4.00;;
75488;SDS011;64069;46.396;48.102;2023-02-28T09:09:16;7.45;;;3.55;;
75488;SDS011;64069;46.396;48.102;2023-02-28T09:11:41;12.90;;;4.32;;
75488;SDS011;64069;46.396;48.102;2023-02-28T09:14:07;14.20;;;4.43;;
75488;SDS011;64069;46.396;48.102;2023-02-28T09:16:34;11.25;;;4.18;;
75488;SDS011;64069;46.396;48.102;2023-02-28T09:19:00;9.80;;;4.03;;
75488;SDS011;64069;46.396;48.102;2023-02-28T09:21:26;12.60;;;4.22;;
75488;SDS011;64069;46.396;48.102;2023-02-28T09:23:53;11.48;;;5.15;;
75488;SDS011;64069;46.396;48.102;2023-02-28T09:26:21;10.90;;;4.22;;
75488;SDS011;64069;46.396;48.102;2023-02-28T09:28:52;14.40;;;4.13;;
75488;SDS011;64069;46.396;48.102;2023-02-28T09:31:24;8.13;;;4.13;;
75488;SDS011;64069;46.396;48.102;2023-02-28T09:33:52;19.05;;;4.68;;
75488;SDS011;64069;46.396;48.102;2023-02-28T09:36:20;15.50;;;4.22;;
75488;SDS011;64069;46.396;48.102;2023-02-28T09:38:47;12.77;;;4.68;;
75488;SDS011;64069;46.396;48.102;2023-02-28T09:41:14;10.10;;;4.40;;
75488;SDS011;64069;46.396;48.102;2023-02-28T09:43:46;14.18;;;5.55;;
75488;SDS011;64069;46.396;48.102;2023-02-28T09:48:58;9.48;;;4.30;;
75488;SDS011;64069;46.396;48.102;2023-02-28T09:54:18;16.73;;;4.15;;
75488;SDS011;64069;46.396;48.102;2023-02-28T09:56:48;9.02;;;4.35;;
75488;SDS011;64069;46.396;48.102;2023-02-28T09:59:26;11.70;;;5.25;;
75488;SDS011;64069;46.396;48.102;2023-02-28T10:02:13;13.93;;;5.22;;
75488;SDS011;64069;46.396;48.102;2023-02-28T10:10:41;11.93;;;5.10;;
75488;SDS011;64069;46.396;48.102;2023-02-28T10:13:22;13.43;;;5.55;;
75488;SDS011;64069;46.396;48.102;2023-02-28T10:16:13;10.82;;;5.45;;
75488;SDS011;64069;46.396;48.102;2023-02-28T10:18:43;13.20;;;5.25;;
75488;SDS011;64069;46.396;48.102;2023-02-28T10:21:28;14.07;;;5.75;;
75488;SDS011;64069;46.396;48.102;2023-02-28T10:24:13;46.95;;;22.73;;
75488;SDS011;64069;46.396;48.102;2023-02-28T10:26:45;9.50;;;4.85;;
75488;SDS011;64069;46.396;48.102;2023-02-28T10:29:13;13.77;;;5.00;;
75488;SDS011;64069;46.396;48.102;2023-02-28T10:31:39;16.98;;;5.40;;
75488;SDS011;64069;46.396;48.102;2023-02-28T10:34:06;14.38;;;7.53;;
75488;SDS011;64069;46.396;48.102;2023-02-28T10:36:37;18.63;;;6.68;;
75488;SDS011;64069;46.396;48.102;2023-02-28T10:39:33;11.77;;;5.90;;
75488;SDS011;64069;46.396;48.102;2023-02-28T10:42:18;13.32;;;6.90;;
75488;SDS011;64069;46.396;48.102;2023-02-28T10:47:59;12.32;;;5.22;;
75488;SDS011;64069;46.396;48.102;2023-02-28T10:50:51;12.98;;;5.47;;
75488;SDS011;64069;46.396;48.102;2023-02-28T10:58:24;15.10;;;5.65;;
75488;SDS011;64069;46.396;48.102;2023-02-28T11:00:53;10.40;;;4.78;;
75488;SDS011;64069;46.396;48.102;2023-02-28T11:03:23;14.48;;;6.65;;
75488;SDS011;64069;46.396;48.102;2023-02-28T11:05:53;15.00;;;5.95;;
75488;SDS011;64069;46.396;48.102;2023-02-28T11:08:20;12.98;;;5.57;;
75488;SDS011;64069;46.396;48.102;2023-02-28T11:10:47;14.80;;;7.22;;
75488;SDS011;64069;46.396;48.102;2023-02-28T11:13:28;17.15;;;6.90;;
75488;SDS011;64069;46.396;48.102;2023-02-28T11:16:02;15.23;;;7.15;;
75488;SDS011;64069;46.396;48.102;2023-02-28T11:21:15;14.55;;;6.32;;
75488;SDS011;64069;46.396;48.102;2023-02-28T11:24:03;14.40;;;7.10;;
75488;SDS011;64069;46.396;48.102;2023-02-28T11:26:39;10.65;;;5.38;;
75488;SDS011;64069;46.396;48.102;2023-02-28T11:29:21;14.90;;;5.43;;
75488;SDS011;64069;46.396;48.102;2023-02-28T11:32:11;13.30;;;5.97;;
75488;SDS011;64069;46.396;48.102;2023-02-28T11:34:44;18.30;;;6.25;;
75488;SDS011;64069;46.396;48.102;2023-02-28T11:37:12;14.90;;;6.05;;
75488;SDS011;64069;46.396;48.102;2023-02-28T11:39:42;10.38;;;5.22;;
75488;SDS011;64069;46.396;48.102;2023-02-28T11:45:03;9.68;;;5.07;;
75488;SDS011;64069;46.396;48.102;2023-02-28T11:48:04;11.77;;;5.13;;
75488;SDS011;64069;46.396;48.102;2023-02-28T11:50:56;19.33;;;6.03;;
75488;SDS011;64069;46.396;48.102;2023-02-28T11:56:32;17.58;;;6.60;;
75488;SDS011;64069;46.396;48.102;2023-02-28T12:24:04;15.50;;;5.90;;
75488;SDS011;64069;46.396;48.102;2023-02-28T12:26:43;12.93;;;5.85;;
75488;SDS011;64069;46.396;48.102;2023-02-28T12:29:19;11.30;;;5.70;;
75488;SDS011;64069;46.396;48.102;2023-02-28T12:32:22;16.15;;;5.07;;
75488;SDS011;64069;46.396;48.102;2023-02-28T12:34:50;16.90;;;5.97;;
75488;SDS011;64069;46.396;48.102;2023-02-28T12:37:22;10.40;;;5.35;;
75488;SDS011;64069;46.396;48.102;2023-02-28T12:39:59;14.00;;;5.93;;
75488;SDS011;64069;46.396;48.102;2023-02-28T12:42:32;15.50;;;5.75;;
75488;SDS011;64069;46.396;48.102;2023-02-28T12:45:26;12.15;;;5.90;;
75488;SDS011;64069;46.396;48.102;2023-02-28T12:48:01;18.80;;;5.43;;
75488;SDS011;64069;46.396;48.102;2023-02-28T12:50:31;16.77;;;6.03;;
75488;SDS011;64069;46.396;48.102;2023-02-28T12:53:00;17.15;;;6.80;;
75488;SDS011;64069;46.396;48.102;2023-02-28T13:01:12;17.15;;;6.30;;
75488;SDS011;64069;46.396;48.102;2023-02-28T13:06:20;12.15;;;5.68;;
75488;SDS011;64069;46.396;48.102;2023-02-28T13:14:06;13.85;;;6.93;;
75488;SDS011;64069;46.396;48.102;2023-02-28T13:19:26;16.33;;;8.32;;
75488;SDS011;64069;46.396;48.102;2023-02-28T13:21:56;17.45;;;6.55;;
75488;SDS011;64069;46.396;48.102;2023-02-28T13:29:34;25.33;;;12.63;;
75488;SDS011;64069;46.396;48.102;2023-02-28T13:34:36;16.40;;;7.40;;
75488;SDS011;64069;46.396;48.102;2023-02-28T13:39:51;16.53;;;7.30;;
75488;SDS011;64069;46.396;48.102;2023-02-28T13:42:23;17.20;;;8.00;;
75488;SDS011;64069;46.396;48.102;2023-02-28T14:07:16;32.95;;;13.32;;
75488;SDS011;64069;46.396;48.102;2023-02-28T14:09:47;41.00;;;13.70;;
75488;SDS011;64069;46.396;48.102;2023-02-28T14:12:53;32.13;;;12.27;;
75488;SDS011;64069;46.396;48.102;2023-02-28T14:18:03;27.60;;;12.55;;
75488;SDS011;64069;46.396;48.102;2023-02-28T14:20:57;28.40;;;9.43;;
75488;SDS011;64069;46.396;48.102;2023-02-28T14:23:32;32.92;;;11.30;;
75488;SDS011;64069;46.396;48.102;2023-02-28T14:29:19;26.23;;;9.97;;
75488;SDS011;64069;46.396;48.102;2023-02-28T14:32:02;26.02;;;9.88;;
75488;SDS011;64069;46.396;48.102;2023-02-28T14:37:28;17.45;;;7.47;;
75488;SDS011;64069;46.396;48.102;2023-02-28T14:39:58;18.48;;;8.00;;
75488;SDS011;64069;46.396;48.102;2023-02-28T14:42:32;21.67;;;8.25;;
75488;SDS011;64069;46.396;48.102;2023-02-28T14:45:00;14.98;;;7.07;;
75488;SDS011;64069;46.396;48.102;2023-02-28T14:47:28;22.65;;;8.30;;
75488;SDS011;64069;46.396;48.102;2023-02-28T14:49:58;28.02;;;11.52;;
75488;SDS011;64069;46.396;48.102;2023-02-28T14:52:31;28.98;;;11.20;;
75488;SDS011;64069;46.396;48.102;2023-02-28T14:54:59;21.75;;;10.48;;
75488;SDS011;64069;46.396;48.102;2023-02-28T14:57:29;26.60;;;10.60;;
75488;SDS011;64069;46.396;48.102;2023-02-28T15:00:14;28.73;;;10.45;;
75488;SDS011;64069;46.396;48.102;2023-02-28T15:02:52;27.05;;;11.38;;
75488;SDS011;64069;46.396;48.102;2023-02-28T15:05:24;34.42;;;12.10;;
75488;SDS011;64069;46.396;48.102;2023-02-28T15:08:15;23.63;;;9.38;;
75488;SDS011;64069;46.396;48.102;2023-02-28T15:10:44;27.40;;;10.40;;
75488;SDS011;64069;46.396;48.102;2023-02-28T15:13:15;18.60;;;8.32;;
75488;SDS011;64069;46.396;48.102;2023-02-28T15:18:57;13.60;;;6.82;;
75488;SDS011;64069;46.396;48.102;2023-02-28T15:21:11;18.83;;;7.50;;
75488;SDS011;64069;46.396;48.102;2023-02-28T15:23:42;15.95;;;6.68;;
75488;SDS011;64069;46.396;48.102;2023-02-28T15:26:15;19.33;;;7.60;;
75488;SDS011;64069;46.396;48.102;2023-02-28T15:28:44;17.55;;;7.63;;
75488;SDS011;64069;46.396;48.102;2023-02-28T15:31:45;16.30;;;6.30;;
75488;SDS011;64069;46.396;48.102;2023-02-28T15:34:19;15.68;;;6.65;;
75488;SDS011;64069;46.396;48.102;2023-02-28T15:36:47;19.83;;;7.03;;
75488;SDS011;64069;46.396;48.102;2023-02-28T15:39:23;20.70;;;7.32;;
75488;SDS011;64069;46.396;48.102;2023-02-28T15:45:00;16.10;;;7.13;;
75488;SDS011;64069;46.396;48.102;2023-02-28T15:47:27;17.98;;;6.85;;
75488;SDS011;64069;46.396;48.102;2023-02-28T15:49:56;15.52;;;6.88;;
75488;SDS011;64069;46.396;48.102;2023-02-28T15:52:38;17.90;;;6.60;;
75488;SDS011;64069;46.396;48.102;2023-02-28T15:55:08;24.00;;;7.05;;
75488;SDS011;64069;46.396;48.102;2023-02-28T15:57:43;15.73;;;6.20;;
75488;SDS011;64069;46.396;48.102;2023-02-28T16:00:12;15.88;;;7.55;;
75488;SDS011;64069;46.396;48.102;2023-02-28T16:02:40;16.38;;;7.10;;
75488;SDS011;64069;46.396;48.102;2023-02-28T16:07:37;19.85;;;7.03;;
75488;SDS011;64069;46.396;48.102;2023-02-28T16:10:05;14.00;;;6.97;;
75488;SDS011;64069;46.396;48.102;2023-02-28T16:12:33;16.52;;;7.28;;
75488;SDS011;64069;46.396;48.102;2023-02-28T16:15:01;16.42;;;6.75;;
75488;SDS011;64069;46.396;48.102;2023-02-28T16:17:33;20.58;;;7.07;;
75488;SDS011;64069;46.396;48.102;2023-02-28T16:20:01;18.23;;;6.15;;
75488;SDS011;64069;46.396;48.102;2023-02-28T16:22:31;12.93;;;6.25;;
75488;SDS011;64069;46.396;48.102;2023-02-28T16:24:56;18.17;;;7.00;;
75488;SDS011;64069;46.396;48.102;2023-02-28T16:27:30;16.30;;;6.43;;
75488;SDS011;64069;46.396;48.102;2023-02-28T16:29:58;14.80;;;6.10;;
75488;SDS011;64069;46.396;48.102;2023-02-28T16:32:24;14.23;;;6.05;;
75488;SDS011;64069;46.396;48.102;2023-02-28T16:34:50;16.20;;;6.40;;
75488;SDS011;64069;46.396;48.102;2023-02-28T16:37:19;19.23;;;7.07;;
75488;SDS011;64069;46.396;48.102;2023-02-28T16:39:45;21.55;;;7.88;;
75488;SDS011;64069;46.396;48.102;2023-02-28T16:42:21;17.85;;;6.35;;
75488;SDS011;64069;46.396;48.102;2023-02-28T16:44:51;16.45;;;6.35;;
75488;SDS011;64069;46.396;48.102;2023-02-28T16:47:18;13.95;;;6.75;;
75488;SDS011;64069;46.396;48.102;2023-02-28T16:49:44;21.42;;;6.80;;
75488;SDS011;64069;46.396;48.102;2023-02-28T16:52:13;17.50;;;7.25;;
75488;SDS011;64069;46.396;48.102;2023-02-28T16:54:39;17.35;;;7.78;;
75488;SDS011;64069;46.396;48.102;2023-02-28T16:57:18;14.93;;;6.50;;
75488;SDS011;64069;46.396;48.102;2023-02-28T16:59:47;16.58;;;7.28;;
75488;SDS011;64069;46.396;48.102;2023-02-28T17:02:16;18.00;;;6.90;;
75488;SDS011;64069;46.396;48.102;2023-02-28T17:04:44;18.77;;;7.40;;
75488;SDS011;64069;46.396;48.102;2023-02-28T17:07:12;18.95;;;7.28;;
75488;SDS011;64069;46.396;48.102;2023-02-28T17:09:39;20.90;;;7.88;;
75488;SDS011;64069;46.396;48.102;2023-02-28T17:12:06;20.67;;;7.95;;
75488;SDS011;64069;46.396;48.102;2023-02-28T17:14:32;19.60;;;7.95;;
75488;SDS011;64069;46.396;48.102;2023-02-28T17:16:58;24.58;;;8.13;;
75488;SDS011;64069;46.396;48.102;2023-02-28T17:19:24;17.67;;;7.97;;
75488;SDS011;64069;46.396;48.102;2023-02-28T17:21:54;21.08;;;8.25;;
75488;SDS011;64069;46.396;48.102;2023-02-28T17:24:20;20.98;;;7.88;;
75488;SDS011;64069;46.396;48.102;2023-02-28T17:26:46;19.60;;;8.05;;
75488;SDS011;64069;46.396;48.102;2023-02-28T17:29:17;22.38;;;8.85;;
75488;SDS011;64069;46.396;48.102;2023-02-28T17:31:45;19.13;;;7.55;;